Latest Weather Observations for Mount Lofty

IDS60801

Issued at 6:31 pm CDT Sunday 4 December 2016 (issued every 30 minutes, with the page automatically refreshed every 10 minutes)

About weather observations | Map of weather stations | Latest weather observations for SA | Other Formats
Station Details ID: 023842 Name: MOUNT LOFTY Lat: -34.98 Lon: 138.71 Height: 685.0 m
Data from the previous 72 hours. | See also: Recent months at Mount Lofty
Date/Time
CDT
Temp
°C
App
Temp
°C
Dew
Point
°C
Rel
Hum
%
Delta-T
°C
Wind Press
QNH
hPa
Press
MSL
hPa
Rain since
9am
mm
Dir  Spd
km/h
Gust
km/h
Spd
kts
Gust
kts
04/06:30pm 22.4 21.4 15.5 65 4.3 WNW 15 28 8 15 - - 7.0
04/06:00pm 22.5 21.5 15.6 65 4.3 NW 15 26 8 14 - - 7.0
04/05:30pm 22.4 20.8 16.0 67 4.0 NW 19 35 10 19 - - 7.0
04/05:00pm 21.8 20.7 16.3 71 3.4 NW 17 32 9 17 - - 7.0
04/04:30pm 21.2 19.4 16.0 72 3.2 NW 20 33 11 18 - - 7.0
04/04:00pm 21.7 19.2 15.1 66 4.0 NNW 22 37 12 20 - - 7.0
04/03:30pm 21.8 20.6 16.1 70 3.5 NNW 17 32 9 17 - - 7.0
04/03:00pm 19.9 19.2 16.5 81 2.1 NNW 15 24 8 13 - - 7.0
04/02:30pm 19.0 18.1 16.8 87 1.4 NW 17 30 9 16 - - 6.8
04/02:00pm 19.2 17.8 17.0 87 1.4 NW 20 35 11 19 - - 6.8
04/01:30pm 18.3 16.7 17.5 95 0.5 NW 22 39 12 21 - - 6.8
04/01:00pm 17.6 15.7 16.8 95 0.5 NW 22 39 12 21 - - 6.8
04/12:30pm 17.6 15.3 16.6 94 0.6 NW 24 39 13 21 - - 6.2
04/12:00pm 17.5 15.5 16.4 93 0.7 NW 22 37 12 20 - - 5.2
04/11:30am 17.5 14.9 16.0 91 0.9 NW 24 44 13 24 - - 4.2
04/11:00am 17.3 15.6 16.2 93 0.7 NW 20 35 11 19 - - 3.0
04/10:30am 17.6 15.3 15.8 89 1.1 NW 22 41 12 22 - - 1.8
04/10:00am 17.9 16.3 16.1 89 1.1 NW 19 32 10 17 - - 1.0
04/09:30am 17.8 16.3 15.2 85 1.6 NW 17 35 9 19 - - 0.8
04/09:00am 18.7 13.8 12.7 68 3.5 NW 30 57 16 31 - - 0.0
04/08:39am 21.3 15.9 9.5 47 6.5 NW 28 48 15 26 - - 0.0
04/08:30am 21.4 16.2 8.7 44 6.9 NW 26 46 14 25 - - 0.0
04/08:23am 21.8 16.3 9.0 44 7.0 NW 28 46 15 25 - - 0.0
04/08:00am 22.0 16.8 8.9 43 7.2 NW 26 46 14 25 - - 0.0
04/07:30am 23.2 17.7 6.1 33 9.0 NNW 24 44 13 24 - - 0.0
04/07:18am 24.3 18.1 6.1 31 9.6 NNW 28 48 15 26 - - 0.0
04/07:00am 24.6 20.1 5.9 30 9.9 N 19 41 10 22 - - 0.0
04/06:30am 24.7 20.5 5.5 29 10.1 NNE 17 35 9 19 - - 0.0
04/06:00am 24.8 20.0 4.5 27 10.5 NNE 19 39 10 21 - - 0.0
04/05:30am 25.1 20.0 -1.6 17 12.4 NNE 15 30 8 16 - - 0.0
04/05:00am 24.6 21.0 2.7 24 10.9 NE 11 22 6 12 - - 0.0
04/04:30am 23.4 20.4 3.9 28 9.9 NE 9 17 5 9 - - 0.0
04/04:00am 23.5 20.7 2.9 26 10.2 NE 7 15 4 8 - - 0.0
04/03:30am 23.5 20.0 -1.4 19 11.4 NE 7 15 4 8 - - 0.0
04/03:00am 23.2 20.1 1.5 24 10.5 NNE 7 13 4 7 - - 0.0
04/02:30am 22.6 19.6 4.2 30 9.3 NNE 9 13 5 7 - - 0.0
04/02:00am 22.0 19.7 5.0 33 8.7 NNE 6 7 3 4 - - 0.0
04/01:30am 22.8 20.7 5.7 33 8.9 N 6 7 3 4 - - 0.0
04/01:00am 20.9 19.9 5.7 37 7.8 CALM 0 0 0 0 - - 0.0
04/12:30am 20.9 19.4 4.9 35 8.1 WNW 2 4 1 2 - - 0.0
04/12:00am 21.1 19.6 2.9 30 8.9 CALM 0 0 0 0 - - 0.0
 
Date/Time
CDT
Temp
°C
App
Temp
°C
Dew
Point
°C
Rel
Hum
%
Delta-T
°C
Wind Press
QNH
hPa
Press
MSL
hPa
Rain since
9am
mm
Dir  Spd
km/h
Gust
km/h
Spd
kts
Gust
kts
03/11:30pm 20.7 19.0 1.6 28 9.1 CALM 0 2 0 1 - - 0.0
03/11:00pm 21.4 18.3 -2.5 20 10.6 WSW 4 7 2 4 - - 0.0
03/10:30pm 21.7 18.8 -0.9 22 10.3 WNW 4 7 2 4 - - 0.0
03/10:00pm 21.6 18.6 2.3 28 9.4 WNW 7 11 4 6 - - 0.0
03/09:30pm 21.6 18.5 3.8 31 8.9 WNW 9 11 5 6 - - 0.0
03/09:00pm 20.6 18.2 5.4 37 7.8 WNW 7 9 4 5 - - 0.0
03/08:30pm 19.9 18.4 7.0 43 6.8 WNW 4 6 2 3 - - 0.0
03/08:00pm 20.7 19.4 7.7 43 6.9 WNW 4 7 2 4 - - 0.0
03/07:30pm 22.4 20.5 6.6 36 8.4 W 6 11 3 6 - - 0.0
03/07:00pm 22.8 20.7 6.6 35 8.6 WNW 7 13 4 7 - - 0.0
03/06:30pm 23.8 21.3 6.6 33 9.2 WNW 9 17 5 9 - - 0.0
03/06:00pm 24.8 22.4 7.0 32 9.6 WNW 9 19 5 10 - - 0.0
03/05:30pm 24.9 22.5 7.1 32 9.6 WNW 9 17 5 9 - - 0.0
03/05:00pm 24.8 22.4 7.0 32 9.6 WNW 9 19 5 10 - - 0.0
03/04:30pm 25.6 24.0 8.6 34 9.5 W 7 19 4 10 - - 0.0
03/04:00pm 25.5 23.0 8.1 33 9.6 NW 11 19 6 10 - - 0.0
03/03:30pm 25.3 22.7 7.9 33 9.6 WNW 11 24 6 13 - - 0.0
03/03:00pm 25.7 23.3 8.7 34 9.5 WNW 11 22 6 12 - - 0.0
03/02:30pm 24.5 22.9 8.0 35 9.0 NNW 6 9 3 5 - - 0.0
03/02:00pm 24.3 22.8 8.3 36 8.8 W 6 15 3 8 - - 0.0
03/01:30pm 23.7 22.4 9.3 40 8.0 NW 6 11 3 6 - - 0.0
03/01:00pm 22.7 21.2 8.4 40 7.8 WNW 6 11 3 6 - - 0.0
03/12:30pm 21.7 19.6 8.2 42 7.3 NNW 9 15 5 8 - - 0.0
03/12:00pm 21.6 19.8 8.1 42 7.3 NNW 7 13 4 7 - - 0.0
03/11:30am 20.8 19.6 9.7 49 6.2 N 6 11 3 6 - - 0.0
03/11:00am 19.4 17.8 8.1 48 6.0 NE 6 11 3 6 - - 0.0
03/10:30am 17.8 16.2 8.1 53 5.1 NE 6 9 3 5 - - 0.0
03/10:00am 16.2 14.2 6.9 54 4.8 E 7 13 4 7 - - 0.0
03/09:30am 15.5 13.6 7.5 59 4.1 ENE 7 13 4 7 - - 0.0
03/09:00am 13.8 11.8 6.9 63 3.5 E 7 17 4 9 - - 0.0
03/08:30am 12.2 10.1 6.5 68 2.8 E 7 13 4 7 - - 0.0
03/08:00am 10.2 7.4 5.2 71 2.4 ESE 9 19 5 10 - - 0.0
03/07:30am 8.1 4.8 4.7 79 1.6 E 11 20 6 11 - - 0.0
03/07:00am 7.2 4.3 4.5 83 1.2 E 9 20 5 11 - - 0.0
03/06:30am 6.3 2.4 3.6 83 1.2 ESE 13 22 7 12 - - 0.0
03/06:00am 5.8 2.2 2.8 81 1.3 E 11 17 6 9 - - 0.0
03/05:30am 5.6 2.1 3.4 86 1.0 ESE 11 17 6 9 - - 0.0
03/05:00am 6.0 2.4 4.8 92 0.5 E 13 19 7 10 - - 0.0
03/04:30am 6.4 3.2 5.2 92 0.5 ESE 11 17 6 9 - - 0.0
03/04:00am 6.5 3.3 5.1 91 0.6 E 11 17 6 9 - - 0.0
03/03:30am 6.5 3.3 5.1 91 0.6 ESE 11 17 6 9 - - 0.0
03/03:00am 6.5 3.3 5.3 92 0.6 ESE 11 15 6 8 - - 0.0
03/02:30am 6.6 3.1 5.4 92 0.6 ESE 13 19 7 10 - - 0.0
03/02:00am 6.7 3.6 5.7 93 0.5 ESE 11 17 6 9 - - 0.0
03/01:30am 6.8 3.7 5.7 93 0.5 ESE 11 19 6 10 - - 0.0
03/01:00am 6.9 3.5 5.8 93 0.5 ESE 13 17 7 9 - - 0.0
03/12:30am 7.1 3.7 6.0 93 0.5 ESE 13 19 7 10 - - 0.0
03/12:00am 7.3 4.0 6.2 93 0.5 ESE 13 19 7 10 - - 0.0
 
Date/Time
CDT
Temp
°C
App
Temp
°C
Dew
Point
°C
Rel
Hum
%
Delta-T
°C
Wind Press
QNH
hPa
Press
MSL
hPa
Rain since
9am
mm
Dir  Spd
km/h
Gust
km/h
Spd
kts
Gust
kts
02/11:30pm 7.4 4.4 6.2 92 0.6 ESE 11 19 6 10 - - 0.0
02/11:00pm 7.4 4.4 6.2 92 0.6 ESE 11 17 6 9 - - 0.0
02/10:30pm 7.7 4.8 6.3 91 0.7 ESE 11 17 6 9 - - 0.0
02/10:00pm 8.0 4.3 6.5 90 0.7 ESE 15 22 8 12 - - 0.0
02/09:30pm 8.5 5.2 6.6 88 0.9 ESE 13 22 7 12 - - 0.0
02/09:00pm 8.8 5.6 6.8 87 1.0 ESE 13 19 7 10 - - 0.0
02/08:30pm 9.4 6.2 6.8 84 1.3 ESE 13 22 7 12 - - 0.0
02/08:00pm 10.3 7.1 7.0 80 1.6 ESE 13 22 7 12 - - 0.0
02/07:30pm 11.3 8.2 7.2 76 2.0 ESE 13 20 7 11 - - 0.0
02/07:00pm 12.3 8.8 7.4 72 2.5 ESE 15 30 8 16 - - 0.0
02/06:30pm 13.5 10.6 8.1 70 2.8 ESE 13 20 7 11 - - 0.0
02/06:00pm 14.9 12.5 8.6 66 3.3 ESE 11 22 6 12 - - 0.0
02/05:30pm 16.2 14.1 9.6 65 3.6 ESE 11 28 6 15 - - 0.0
02/05:00pm 16.1 14.3 9.5 65 3.6 SE 9 19 5 10 - - 0.0
02/04:30pm 17.3 15.6 10.0 62 4.0 SE 9 22 5 12 - - 0.0
02/04:00pm 19.2 17.9 11.3 60 4.5 ESE 9 17 5 9 - - 0.0
02/03:30pm 18.9 18.3 10.5 58 4.7 SSE 4 6 2 3 - - 0.0
02/03:00pm 18.8 18.3 10.6 59 4.6 WSW 4 7 2 4 - - 0.0
02/02:30pm 18.3 17.3 8.8 54 5.1 SW 4 9 2 5 - - 0.0
02/02:00pm 17.8 17.6 10.4 62 4.1 WSW 2 7 1 4 - - 0.0
02/01:30pm 17.7 17.3 11.0 65 3.7 ENE 4 7 2 4 - - 0.0
02/01:00pm 16.9 16.7 10.3 65 3.6 SSW 2 4 1 2 - - 0.0
02/12:30pm 17.2 16.4 11.2 68 3.4 SE 6 11 3 6 - - 0.0
02/12:00pm 16.8 16.0 11.1 69 3.2 SE 6 13 3 7 - - 0.0
02/11:30am 15.2 13.8 8.9 66 3.3 SSE 6 9 3 5 - - 0.0
02/11:00am 15.1 14.1 9.0 67 3.2 SE 4 11 2 6 - - 0.0
02/10:30am 14.5 13.7 9.5 72 2.7 E 4 9 2 5 - - 0.0
02/10:00am 13.7 12.6 9.9 78 2.0 SE 6 13 3 7 - - 0.0
02/09:30am 12.0 11.3 9.9 87 1.1 SSE 4 9 2 5 - - 0.0
02/09:00am 11.9 10.8 10.0 88 1.0 SE 6 11 3 6 - - 0.0
02/08:30am 11.3 10.4 9.2 87 1.1 SSE 4 9 2 5 - - 0.0
02/08:00am 11.3 10.2 9.9 91 0.7 SSE 6 13 3 7 - - 0.0
02/07:30am 10.3 9.1 9.4 94 0.5 SE 6 15 3 8 - - 0.0
02/07:00am 9.5 7.9 8.7 95 0.4 SSE 7 19 4 10 - - 0.0
02/06:30am 9.1 7.4 8.3 95 0.4 SSE 7 15 4 8 - - 0.0
02/06:00am 8.7 6.9 7.8 94 0.4 SE 7 15 4 8 - - 0.0
02/05:30am 8.7 6.9 7.8 94 0.4 SE 7 13 4 7 - - 0.0
02/05:00am 8.9 7.0 7.5 91 0.7 SSE 7 15 4 8 - - 0.0
02/04:30am 8.7 6.8 6.8 88 0.9 SSE 6 13 3 7 - - 0.0
02/04:00am 9.1 7.7 7.1 87 1.0 S 4 9 2 5 - - 0.0
02/03:30am 9.4 8.1 7.7 89 0.8 S 4 7 2 4 - - 0.0
02/03:00am 9.6 8.0 8.0 90 0.8 SSE 6 9 3 5 - - 0.0
02/02:30am 9.5 8.2 7.8 89 0.8 SSE 4 7 2 4 - - 0.0
02/02:00am 9.6 8.5 8.4 92 0.6 SE 4 6 2 3 - - 0.0
02/01:30am 9.6 8.5 8.5 93 0.6 SE 4 6 2 3 - - 0.0
02/01:00am 9.5 8.4 8.6 94 0.5 SE 4 4 2 2 - - 0.0
02/12:30am 9.5 8.8 8.6 94 0.5 S 2 4 1 2 - - 0.0
02/12:00am 9.4 7.9 8.5 94 0.5 ESE 6 9 3 5 - - 0.0
 
Date/Time
CDT
Temp
°C
App
Temp
°C
Dew
Point
°C
Rel
Hum
%
Delta-T
°C
Wind Press
QNH
hPa
Press
MSL
hPa
Rain since
9am
mm
Dir  Spd
km/h
Gust
km/h
Spd
kts
Gust
kts
01/11:30pm 9.6 8.2 8.7 94 0.5 ESE 6 9 3 5 - - 0.0
01/11:00pm 9.8 8.3 8.6 92 0.6 ESE 6 9 3 5 - - 0.0
01/10:30pm 10.3 8.7 8.6 89 0.9 ESE 7 11 4 6 - - 0.0
01/10:00pm 11.4 9.9 8.3 81 1.6 ESE 6 9 3 5 - - 0.0
01/09:30pm 11.3 9.7 8.2 81 1.6 ESE 6 7 3 4 - - 0.0
01/09:00pm 11.9 10.3 8.2 78 1.9 SE 6 9 3 5 - - 0.0
01/08:30pm 11.9 11.2 8.6 80 1.7 SSE 2 7 1 4 - - 0.0
01/08:00pm 12.9 11.8 8.6 75 2.2 SW 4 6 2 3 - - 0.0
01/07:30pm 13.8 13.0 8.2 69 2.9 WSW 2 6 1 3 - - 0.0
01/07:00pm 14.4 12.7 7.5 63 3.5 W 6 13 3 7 - - 0.0

Other Formats:

Comma delimited format used in spreadsheet applications
http://www.bom.gov.au/fwo/IDS60801/IDS60801.95678.axf

JavaScript Object Notation format (JSON) in row-major order
http://www.bom.gov.au/fwo/IDS60801/IDS60801.95678.json